In Rescue
 
Open Full Screen Window  High Contrast Mode
Wind Gusting 00 knots
07
December 19, 2018 11:18 AM EST
Weather Information
Wind Direction
  190 °
Wind Speed
  07 kt (8 mph)
Wind Gust
  00 kt (0 mph)
Altimeter
29.94 in
Visibility
10 SM
Temperature
01° C
34° F
Dewpoint
-01° C
30° F
Humidity
87%
1hr Rain Fall
00.00 in.
24hr Rain Fall
00.00 in.
Sky Condition
Clear
VFR

METAR KJYM 191618Z AUTO 19007KT 10SM CLR 01/M01 A2994 RMK AO2

FAA Disclaimer: The data displayed is for advisory purposes only and is not to be used for flight planning or operations.